sensor_id;sensor_type;location;lat;lon;timestamp;P1;durP1;ratioP1;P2;durP2;ratioP2
146;SDS011;45999;48.808;9.182;2023-04-03T00:01:49;2.03;;;1.90;;
146;SDS011;45999;48.808;9.182;2023-04-03T00:04:15;2.33;;;1.93;;
146;SDS011;45999;48.808;9.182;2023-04-03T00:06:42;2.20;;;1.97;;
146;SDS011;45999;48.808;9.182;2023-04-03T00:09:08;2.63;;;2.10;;
146;SDS011;45999;48.808;9.182;2023-04-03T00:11:34;2.47;;;2.27;;
146;SDS011;45999;48.808;9.182;2023-04-03T00:14:01;2.60;;;1.97;;
146;SDS011;45999;48.808;9.182;2023-04-03T00:16:27;3.23;;;2.20;;
146;SDS011;45999;48.808;9.182;2023-04-03T00:18:53;2.83;;;2.07;;
146;SDS011;45999;48.808;9.182;2023-04-03T00:21:20;3.57;;;2.37;;
146;SDS011;45999;48.808;9.182;2023-04-03T00:23:46;3.73;;;2.47;;
146;SDS011;45999;48.808;9.182;2023-04-03T00:26:13;1.83;;;1.73;;
146;SDS011;45999;48.808;9.182;2023-04-03T00:28:39;2.37;;;1.90;;
146;SDS011;45999;48.808;9.182;2023-04-03T00:31:06;3.30;;;2.07;;
146;SDS011;45999;48.808;9.182;2023-04-03T00:33:32;4.20;;;2.53;;
146;SDS011;45999;48.808;9.182;2023-04-03T00:35:58;2.93;;;2.10;;
146;SDS011;45999;48.808;9.182;2023-04-03T00:38:25;2.50;;;2.17;;
146;SDS011;45999;48.808;9.182;2023-04-03T00:40:51;2.50;;;2.30;;
146;SDS011;45999;48.808;9.182;2023-04-03T00:43:19;4.07;;;2.30;;
146;SDS011;45999;48.808;9.182;2023-04-03T00:45:49;3.07;;;2.17;;
146;SDS011;45999;48.808;9.182;2023-04-03T00:48:18;3.23;;;2.10;;
146;SDS011;45999;48.808;9.182;2023-04-03T00:50:48;3.30;;;2.27;;
146;SDS011;45999;48.808;9.182;2023-04-03T00:53:17;4.40;;;2.30;;
146;SDS011;45999;48.808;9.182;2023-04-03T00:55:47;2.53;;;2.00;;
146;SDS011;45999;48.808;9.182;2023-04-03T00:58:15;2.33;;;1.93;;
146;SDS011;45999;48.808;9.182;2023-04-03T01:00:46;3.53;;;2.40;;
146;SDS011;45999;48.808;9.182;2023-04-03T01:03:16;4.37;;;2.10;;
146;SDS011;45999;48.808;9.182;2023-04-03T01:05:43;2.27;;;2.07;;
146;SDS011;45999;48.808;9.182;2023-04-03T01:08:09;2.67;;;2.10;;
146;SDS011;45999;48.808;9.182;2023-04-03T01:10:36;2.70;;;2.27;;
146;SDS011;45999;48.808;9.182;2023-04-03T01:13:02;2.30;;;2.10;;
146;SDS011;45999;48.808;9.182;2023-04-03T01:15:43;2.40;;;2.00;;
146;SDS011;45999;48.808;9.182;2023-04-03T01:18:10;3.33;;;2.40;;
146;SDS011;45999;48.808;9.182;2023-04-03T01:20:42;2.70;;;2.13;;
146;SDS011;45999;48.808;9.182;2023-04-03T01:23:26;2.60;;;2.30;;
146;SDS011;45999;48.808;9.182;2023-04-03T01:26:03;2.90;;;2.53;;
146;SDS011;45999;48.808;9.182;2023-04-03T01:28:31;2.17;;;1.80;;
146;SDS011;45999;48.808;9.182;2023-04-03T01:33:41;2.33;;;2.10;;
146;SDS011;45999;48.808;9.182;2023-04-03T01:36:09;3.93;;;2.57;;
146;SDS011;45999;48.808;9.182;2023-04-03T01:38:40;2.60;;;2.40;;
146;SDS011;45999;48.808;9.182;2023-04-03T01:41:06;2.43;;;2.20;;
146;SDS011;45999;48.808;9.182;2023-04-03T01:43:33;2.43;;;2.20;;
146;SDS011;45999;48.808;9.182;2023-04-03T01:45:59;3.20;;;2.40;;
146;SDS011;45999;48.808;9.182;2023-04-03T01:48:25;2.13;;;2.00;;
146;SDS011;45999;48.808;9.182;2023-04-03T01:50:52;3.83;;;2.40;;
146;SDS011;45999;48.808;9.182;2023-04-03T01:53:19;2.47;;;1.97;;
146;SDS011;45999;48.808;9.182;2023-04-03T01:55:46;2.60;;;2.30;;
146;SDS011;45999;48.808;9.182;2023-04-03T01:58:12;2.27;;;2.00;;
146;SDS011;45999;48.808;9.182;2023-04-03T02:00:38;4.03;;;2.30;;
146;SDS011;45999;48.808;9.182;2023-04-03T02:03:05;4.17;;;2.60;;
146;SDS011;45999;48.808;9.182;2023-04-03T02:05:31;3.33;;;2.53;;
146;SDS011;45999;48.808;9.182;2023-04-03T02:07:58;3.93;;;2.23;;
146;SDS011;45999;48.808;9.182;2023-04-03T02:10:24;2.73;;;2.10;;
146;SDS011;45999;48.808;9.182;2023-04-03T02:12:51;3.40;;;2.20;;
146;SDS011;45999;48.808;9.182;2023-04-03T02:15:17;3.53;;;2.27;;
146;SDS011;45999;48.808;9.182;2023-04-03T02:17:44;2.93;;;1.97;;
146;SDS011;45999;48.808;9.182;2023-04-03T02:20:10;2.40;;;2.20;;
146;SDS011;45999;48.808;9.182;2023-04-03T02:22:37;2.00;;;1.80;;
146;SDS011;45999;48.808;9.182;2023-04-03T02:25:04;4.97;;;2.27;;
146;SDS011;45999;48.808;9.182;2023-04-03T02:27:30;2.20;;;2.00;;
146;SDS011;45999;48.808;9.182;2023-04-03T02:29:57;3.73;;;2.30;;
146;SDS011;45999;48.808;9.182;2023-04-03T02:32:23;2.37;;;2.07;;
146;SDS011;45999;48.808;9.182;2023-04-03T02:34:49;2.87;;;2.37;;
146;SDS011;45999;48.808;9.182;2023-04-03T02:37:16;2.23;;;2.03;;
146;SDS011;45999;48.808;9.182;2023-04-03T02:39:42;2.13;;;2.00;;
146;SDS011;45999;48.808;9.182;2023-04-03T02:42:09;4.70;;;2.30;;
146;SDS011;45999;48.808;9.182;2023-04-03T02:44:35;2.20;;;2.00;;
146;SDS011;45999;48.808;9.182;2023-04-03T02:47:02;3.03;;;2.50;;
146;SDS011;45999;48.808;9.182;2023-04-03T02:49:28;2.50;;;1.93;;
146;SDS011;45999;48.808;9.182;2023-04-03T02:51:55;2.00;;;1.80;;
146;SDS011;45999;48.808;9.182;2023-04-03T02:54:21;3.53;;;2.20;;
146;SDS011;45999;48.808;9.182;2023-04-03T02:56:48;4.37;;;2.03;;
146;SDS011;45999;48.808;9.182;2023-04-03T02:59:15;3.00;;;1.87;;
146;SDS011;45999;48.808;9.182;2023-04-03T03:01:41;2.53;;;2.33;;
146;SDS011;45999;48.808;9.182;2023-04-03T03:04:08;3.10;;;2.33;;
146;SDS011;45999;48.808;9.182;2023-04-03T03:06:34;2.40;;;2.10;;
146;SDS011;45999;48.808;9.182;2023-04-03T03:09:01;2.33;;;2.13;;
146;SDS011;45999;48.808;9.182;2023-04-03T03:11:28;2.20;;;2.00;;
146;SDS011;45999;48.808;9.182;2023-04-03T03:13:55;3.77;;;2.50;;
146;SDS011;45999;48.808;9.182;2023-04-03T03:16:22;3.00;;;1.87;;
146;SDS011;45999;48.808;9.182;2023-04-03T03:18:48;4.90;;;2.03;;
146;SDS011;45999;48.808;9.182;2023-04-03T03:21:14;3.50;;;2.30;;
146;SDS011;45999;48.808;9.182;2023-04-03T03:23:41;2.20;;;2.00;;
146;SDS011;45999;48.808;9.182;2023-04-03T03:26:08;2.27;;;2.07;;
146;SDS011;45999;48.808;9.182;2023-04-03T03:28:37;3.27;;;2.07;;
146;SDS011;45999;48.808;9.182;2023-04-03T03:31:04;2.23;;;1.63;;
146;SDS011;45999;48.808;9.182;2023-04-03T03:33:31;3.90;;;1.93;;
146;SDS011;45999;48.808;9.182;2023-04-03T03:35:57;3.67;;;1.97;;
146;SDS011;45999;48.808;9.182;2023-04-03T03:38:24;2.60;;;1.80;;
146;SDS011;45999;48.808;9.182;2023-04-03T03:40:50;2.27;;;1.93;;
146;SDS011;45999;48.808;9.182;2023-04-03T03:43:17;1.97;;;1.80;;
146;SDS011;45999;48.808;9.182;2023-04-03T03:45:45;5.23;;;2.10;;
146;SDS011;45999;48.808;9.182;2023-04-03T03:48:15;3.27;;;2.20;;
146;SDS011;45999;48.808;9.182;2023-04-03T03:50:41;2.30;;;1.77;;
146;SDS011;45999;48.808;9.182;2023-04-03T03:53:08;2.10;;;1.90;;
146;SDS011;45999;48.808;9.182;2023-04-03T03:55:34;4.30;;;2.40;;
146;SDS011;45999;48.808;9.182;2023-04-03T03:58:00;2.70;;;2.33;;
146;SDS011;45999;48.808;9.182;2023-04-03T04:00:28;2.80;;;1.83;;
146;SDS011;45999;48.808;9.182;2023-04-03T04:02:55;2.33;;;2.13;;
146;SDS011;45999;48.808;9.182;2023-04-03T04:05:21;2.53;;;2.33;;
146;SDS011;45999;48.808;9.182;2023-04-03T04:07:48;2.40;;;2.00;;
146;SDS011;45999;48.808;9.182;2023-04-03T04:10:14;2.60;;;2.27;;
146;SDS011;45999;48.808;9.182;2023-04-03T04:12:41;3.63;;;1.90;;
146;SDS011;45999;48.808;9.182;2023-04-03T04:15:07;2.57;;;2.23;;
146;SDS011;45999;48.808;9.182;2023-04-03T04:17:35;3.50;;;2.10;;
146;SDS011;45999;48.808;9.182;2023-04-03T04:20:02;3.63;;;2.00;;
146;SDS011;45999;48.808;9.182;2023-04-03T04:22:30;3.17;;;2.10;;
146;SDS011;45999;48.808;9.182;2023-04-03T04:24:57;2.10;;;1.90;;
146;SDS011;45999;48.808;9.182;2023-04-03T04:27:23;2.17;;;1.90;;
146;SDS011;45999;48.808;9.182;2023-04-03T04:29:49;3.37;;;2.07;;
146;SDS011;45999;48.808;9.182;2023-04-03T04:32:16;3.40;;;1.87;;
146;SDS011;45999;48.808;9.182;2023-04-03T04:34:42;3.50;;;1.97;;
146;SDS011;45999;48.808;9.182;2023-04-03T04:37:08;2.87;;;1.80;;
146;SDS011;45999;48.808;9.182;2023-04-03T04:39:35;2.07;;;1.90;;
146;SDS011;45999;48.808;9.182;2023-04-03T04:42:01;3.33;;;2.67;;
146;SDS011;45999;48.808;9.182;2023-04-03T04:44:27;2.47;;;2.20;;
146;SDS011;45999;48.808;9.182;2023-04-03T04:46:54;2.50;;;1.80;;
146;SDS011;45999;48.808;9.182;2023-04-03T04:49:20;3.20;;;2.03;;
146;SDS011;45999;48.808;9.182;2023-04-03T04:51:47;2.37;;;2.10;;
146;SDS011;45999;48.808;9.182;2023-04-03T04:54:13;2.17;;;1.80;;
146;SDS011;45999;48.808;9.182;2023-04-03T04:56:39;2.83;;;1.87;;
146;SDS011;45999;48.808;9.182;2023-04-03T04:59:06;2.60;;;2.07;;
146;SDS011;45999;48.808;9.182;2023-04-03T05:01:32;3.77;;;1.90;;
146;SDS011;45999;48.808;9.182;2023-04-03T05:03:58;1.73;;;1.60;;
146;SDS011;45999;48.808;9.182;2023-04-03T05:06:25;3.20;;;1.90;;
146;SDS011;45999;48.808;9.182;2023-04-03T05:08:51;2.10;;;1.80;;
146;SDS011;45999;48.808;9.182;2023-04-03T05:11:17;3.83;;;2.00;;
146;SDS011;45999;48.808;9.182;2023-04-03T05:13:45;2.47;;;1.83;;
146;SDS011;45999;48.808;9.182;2023-04-03T05:16:11;1.73;;;1.63;;
146;SDS011;45999;48.808;9.182;2023-04-03T05:18:38;3.33;;;1.90;;
146;SDS011;45999;48.808;9.182;2023-04-03T05:21:04;2.20;;;1.80;;
146;SDS011;45999;48.808;9.182;2023-04-03T05:23:30;3.00;;;1.83;;
146;SDS011;45999;48.808;9.182;2023-04-03T05:25:57;3.03;;;2.07;;
146;SDS011;45999;48.808;9.182;2023-04-03T05:28:23;2.97;;;2.00;;
146;SDS011;45999;48.808;9.182;2023-04-03T05:30:54;3.27;;;1.80;;
146;SDS011;45999;48.808;9.182;2023-04-03T05:33:24;3.97;;;1.97;;
146;SDS011;45999;48.808;9.182;2023-04-03T05:35:52;2.70;;;1.80;;
146;SDS011;45999;48.808;9.182;2023-04-03T05:38:18;2.63;;;1.90;;
146;SDS011;45999;48.808;9.182;2023-04-03T05:40:45;4.57;;;2.20;;
146;SDS011;45999;48.808;9.182;2023-04-03T05:43:11;1.90;;;1.80;;
146;SDS011;45999;48.808;9.182;2023-04-03T05:45:38;5.40;;;2.00;;
146;SDS011;45999;48.808;9.182;2023-04-03T05:48:04;2.37;;;1.90;;
146;SDS011;45999;48.808;9.182;2023-04-03T05:50:30;2.37;;;1.90;;
146;SDS011;45999;48.808;9.182;2023-04-03T05:52:57;3.23;;;1.87;;
146;SDS011;45999;48.808;9.182;2023-04-03T05:55:24;2.73;;;1.60;;
146;SDS011;45999;48.808;9.182;2023-04-03T05:57:51;4.73;;;1.80;;
146;SDS011;45999;48.808;9.182;2023-04-03T06:00:17;2.67;;;1.77;;
146;SDS011;45999;48.808;9.182;2023-04-03T06:02:44;2.23;;;1.87;;
146;SDS011;45999;48.808;9.182;2023-04-03T06:05:10;3.07;;;1.90;;
146;SDS011;45999;48.808;9.182;2023-04-03T06:07:38;2.77;;;1.80;;
146;SDS011;45999;48.808;9.182;2023-04-03T06:10:05;3.40;;;1.87;;
146;SDS011;45999;48.808;9.182;2023-04-03T06:12:32;2.73;;;1.87;;
146;SDS011;45999;48.808;9.182;2023-04-03T06:14:58;2.87;;;1.60;;
146;SDS011;45999;48.808;9.182;2023-04-03T06:17:24;2.43;;;1.60;;
146;SDS011;45999;48.808;9.182;2023-04-03T06:19:51;3.10;;;1.83;;
146;SDS011;45999;48.808;9.182;2023-04-03T06:22:18;2.90;;;1.57;;
146;SDS011;45999;48.808;9.182;2023-04-03T06:24:46;4.50;;;1.87;;
146;SDS011;45999;48.808;9.182;2023-04-03T06:27:12;2.73;;;1.90;;
146;SDS011;45999;48.808;9.182;2023-04-03T06:29:39;1.60;;;1.50;;
146;SDS011;45999;48.808;9.182;2023-04-03T06:32:06;2.83;;;1.77;;
146;SDS011;45999;48.808;9.182;2023-04-03T06:34:33;1.87;;;1.77;;
146;SDS011;45999;48.808;9.182;2023-04-03T06:37:02;2.57;;;2.20;;
146;SDS011;45999;48.808;9.182;2023-04-03T06:39:29;2.73;;;1.90;;
146;SDS011;45999;48.808;9.182;2023-04-03T06:41:55;2.03;;;1.93;;
146;SDS011;45999;48.808;9.182;2023-04-03T06:44:22;4.93;;;2.20;;
146;SDS011;45999;48.808;9.182;2023-04-03T06:46:48;2.67;;;1.80;;
146;SDS011;45999;48.808;9.182;2023-04-03T06:49:16;5.17;;;2.10;;
146;SDS011;45999;48.808;9.182;2023-04-03T06:51:43;3.97;;;2.00;;
146;SDS011;45999;48.808;9.182;2023-04-03T06:54:09;3.83;;;2.17;;
146;SDS011;45999;48.808;9.182;2023-04-03T06:56:35;3.30;;;1.70;;
146;SDS011;45999;48.808;9.182;2023-04-03T06:59:02;3.43;;;2.10;;
146;SDS011;45999;48.808;9.182;2023-04-03T07:01:29;2.27;;;1.87;;
146;SDS011;45999;48.808;9.182;2023-04-03T07:03:56;4.03;;;2.10;;
146;SDS011;45999;48.808;9.182;2023-04-03T07:06:22;2.57;;;1.80;;
146;SDS011;45999;48.808;9.182;2023-04-03T07:08:51;3.30;;;2.10;;
146;SDS011;45999;48.808;9.182;2023-04-03T07:11:18;2.73;;;1.70;;
146;SDS011;45999;48.808;9.182;2023-04-03T07:13:45;2.03;;;1.93;;
146;SDS011;45999;48.808;9.182;2023-04-03T07:16:11;2.33;;;1.80;;
146;SDS011;45999;48.808;9.182;2023-04-03T07:18:38;3.77;;;2.00;;
146;SDS011;45999;48.808;9.182;2023-04-03T07:21:04;2.20;;;2.00;;
146;SDS011;45999;48.808;9.182;2023-04-03T07:23:31;2.43;;;2.13;;
146;SDS011;45999;48.808;9.182;2023-04-03T07:25:58;3.73;;;1.60;;
146;SDS011;45999;48.808;9.182;2023-04-03T07:28:25;5.13;;;2.03;;
146;SDS011;45999;48.808;9.182;2023-04-03T07:30:52;2.07;;;1.93;;
146;SDS011;45999;48.808;9.182;2023-04-03T07:33:21;2.93;;;2.00;;
146;SDS011;45999;48.808;9.182;2023-04-03T07:35:48;2.57;;;1.80;;
146;SDS011;45999;48.808;9.182;2023-04-03T07:38:15;3.03;;;2.20;;
146;SDS011;45999;48.808;9.182;2023-04-03T07:40:45;2.50;;;1.77;;
146;SDS011;45999;48.808;9.182;2023-04-03T07:43:14;2.37;;;1.90;;
146;SDS011;45999;48.808;9.182;2023-04-03T07:45:41;2.47;;;1.97;;
146;SDS011;45999;48.808;9.182;2023-04-03T07:48:09;6.23;;;1.83;;
146;SDS011;45999;48.808;9.182;2023-04-03T07:50:42;2.43;;;2.20;;
146;SDS011;45999;48.808;9.182;2023-04-03T07:53:09;2.83;;;2.37;;
146;SDS011;45999;48.808;9.182;2023-04-03T07:55:36;2.20;;;1.97;;
146;SDS011;45999;48.808;9.182;2023-04-03T07:58:08;3.67;;;2.03;;
146;SDS011;45999;48.808;9.182;2023-04-03T08:00:39;2.40;;;1.90;;
146;SDS011;45999;48.808;9.182;2023-04-03T08:03:06;2.70;;;1.93;;
146;SDS011;45999;48.808;9.182;2023-04-03T08:05:40;6.03;;;2.03;;
146;SDS011;45999;48.808;9.182;2023-04-03T08:08:09;3.20;;;2.23;;
146;SDS011;45999;48.808;9.182;2023-04-03T08:10:36;2.43;;;2.00;;
146;SDS011;45999;48.808;9.182;2023-04-03T08:13:03;4.40;;;1.90;;
146;SDS011;45999;48.808;9.182;2023-04-03T08:15:30;3.00;;;2.33;;
146;SDS011;45999;48.808;9.182;2023-04-03T08:17:58;2.93;;;2.00;;
146;SDS011;45999;48.808;9.182;2023-04-03T08:20:25;4.33;;;2.20;;
146;SDS011;45999;48.808;9.182;2023-04-03T08:22:52;3.57;;;2.37;;
146;SDS011;45999;48.808;9.182;2023-04-03T08:25:19;2.80;;;2.13;;
146;SDS011;45999;48.808;9.182;2023-04-03T08:27:45;3.90;;;2.20;;
146;SDS011;45999;48.808;9.182;2023-04-03T08:30:12;2.27;;;1.90;;
146;SDS011;45999;48.808;9.182;2023-04-03T08:32:39;4.43;;;1.77;;
146;SDS011;45999;48.808;9.182;2023-04-03T08:35:06;2.53;;;1.87;;
146;SDS011;45999;48.808;9.182;2023-04-03T08:37:36;1.87;;;1.70;;
146;SDS011;45999;48.808;9.182;2023-04-03T08:40:04;3.80;;;2.00;;
146;SDS011;45999;48.808;9.182;2023-04-03T08:42:37;2.20;;;2.00;;
146;SDS011;45999;48.808;9.182;2023-04-03T08:45:16;3.17;;;2.00;;
146;SDS011;45999;48.808;9.182;2023-04-03T08:50:32;2.93;;;1.93;;
146;SDS011;45999;48.808;9.182;2023-04-03T08:53:03;4.97;;;2.20;;
146;SDS011;45999;48.808;9.182;2023-04-03T08:55:50;4.73;;;1.60;;
146;SDS011;45999;48.808;9.182;2023-04-03T08:58:22;5.30;;;2.03;;
146;SDS011;45999;48.808;9.182;2023-04-03T09:00:57;4.40;;;2.00;;
146;SDS011;45999;48.808;9.182;2023-04-03T09:03:28;2.57;;;1.70;;
146;SDS011;45999;48.808;9.182;2023-04-03T09:06:04;3.37;;;2.30;;
146;SDS011;45999;48.808;9.182;2023-04-03T09:14:14;4.57;;;2.00;;
146;SDS011;45999;48.808;9.182;2023-04-03T09:22:59;2.47;;;1.83;;
146;SDS011;45999;48.808;9.182;2023-04-03T09:25:27;2.27;;;1.67;;
146;SDS011;45999;48.808;9.182;2023-04-03T09:27:58;3.17;;;1.83;;
146;SDS011;45999;48.808;9.182;2023-04-03T09:30:26;2.53;;;1.97;;
146;SDS011;45999;48.808;9.182;2023-04-03T09:32:54;3.43;;;1.97;;
146;SDS011;45999;48.808;9.182;2023-04-03T09:35:29;2.60;;;1.70;;
146;SDS011;45999;48.808;9.182;2023-04-03T09:38:01;4.07;;;1.60;;
146;SDS011;45999;48.808;9.182;2023-04-03T09:40:29;3.00;;;1.97;;
146;SDS011;45999;48.808;9.182;2023-04-03T09:45:48;4.20;;;2.03;;
146;SDS011;45999;48.808;9.182;2023-04-03T09:48:18;3.73;;;1.70;;
146;SDS011;45999;48.808;9.182;2023-04-03T09:50:56;2.77;;;1.50;;
146;SDS011;45999;48.808;9.182;2023-04-03T09:53:29;2.73;;;1.73;;
146;SDS011;45999;48.808;9.182;2023-04-03T09:55:58;3.40;;;1.90;;
146;SDS011;45999;48.808;9.182;2023-04-03T09:58:37;1.90;;;1.60;;
146;SDS011;45999;48.808;9.182;2023-04-03T10:01:06;4.33;;;1.70;;
146;SDS011;45999;48.808;9.182;2023-04-03T10:04:01;3.57;;;1.80;;
146;SDS011;45999;48.808;9.182;2023-04-03T10:06:33;3.63;;;1.93;;
146;SDS011;45999;48.808;9.182;2023-04-03T10:09:03;2.17;;;1.43;;
146;SDS011;45999;48.808;9.182;2023-04-03T10:11:47;2.17;;;1.30;;
146;SDS011;45999;48.808;9.182;2023-04-03T10:14:24;2.00;;;1.53;;
146;SDS011;45999;48.808;9.182;2023-04-03T10:16:53;4.53;;;1.77;;
146;SDS011;45999;48.808;9.182;2023-04-03T10:19:45;2.83;;;1.50;;
146;SDS011;45999;48.808;9.182;2023-04-03T10:22:24;2.97;;;1.40;;
146;SDS011;45999;48.808;9.182;2023-04-03T10:25:10;1.57;;;1.43;;
146;SDS011;45999;48.808;9.182;2023-04-03T10:27:55;2.50;;;1.60;;
146;SDS011;45999;48.808;9.182;2023-04-03T10:33:17;3.80;;;1.40;;
146;SDS011;45999;48.808;9.182;2023-04-03T10:38:53;3.43;;;1.60;;
146;SDS011;45999;48.808;9.182;2023-04-03T10:42:02;1.87;;;1.27;;
146;SDS011;45999;48.808;9.182;2023-04-03T10:44:42;2.60;;;1.50;;
146;SDS011;45999;48.808;9.182;2023-04-03T10:47:26;3.63;;;1.47;;
146;SDS011;45999;48.808;9.182;2023-04-03T10:50:13;3.87;;;1.50;;
146;SDS011;45999;48.808;9.182;2023-04-03T10:52:57;1.50;;;1.33;;
146;SDS011;45999;48.808;9.182;2023-04-03T10:55:34;2.37;;;1.30;;
146;SDS011;45999;48.808;9.182;2023-04-03T10:58:04;2.50;;;1.23;;
146;SDS011;45999;48.808;9.182;2023-04-03T11:00:45;3.07;;;1.40;;
146;SDS011;45999;48.808;9.182;2023-04-03T11:03:16;2.90;;;1.20;;
146;SDS011;45999;48.808;9.182;2023-04-03T11:05:53;3.27;;;1.60;;
146;SDS011;45999;48.808;9.182;2023-04-03T11:11:20;2.93;;;1.70;;
146;SDS011;45999;48.808;9.182;2023-04-03T11:16:24;2.93;;;1.30;;
146;SDS011;45999;48.808;9.182;2023-04-03T11:18:59;2.33;;;1.27;;
146;SDS011;45999;48.808;9.182;2023-04-03T11:21:31;4.80;;;1.60;;
146;SDS011;45999;48.808;9.182;2023-04-03T11:24:04;3.07;;;1.13;;
146;SDS011;45999;48.808;9.182;2023-04-03T11:26:37;1.53;;;1.17;;
146;SDS011;45999;48.808;9.182;2023-04-03T11:29:07;3.03;;;1.50;;
146;SDS011;45999;48.808;9.182;2023-04-03T11:31:45;3.63;;;1.63;;
146;SDS011;45999;48.808;9.182;2023-04-03T11:34:34;2.00;;;1.30;;
146;SDS011;45999;48.808;9.182;2023-04-03T11:39:56;1.27;;;1.10;;
146;SDS011;45999;48.808;9.182;2023-04-03T11:42:46;3.00;;;1.23;;
146;SDS011;45999;48.808;9.182;2023-04-03T11:45:16;3.10;;;1.37;;
146;SDS011;45999;48.808;9.182;2023-04-03T11:47:54;1.13;;;1.00;;
146;SDS011;45999;48.808;9.182;2023-04-03T12:13:36;1.43;;;1.10;;
146;SDS011;45999;48.808;9.182;2023-04-03T12:21:20;2.75;;;1.45;;
146;SDS011;45999;48.808;9.182;2023-04-03T12:26:44;1.53;;;1.30;;
146;SDS011;45999;48.808;9.182;2023-04-03T12:29:45;3.03;;;1.47;;
146;SDS011;45999;48.808;9.182;2023-04-03T12:41:42;1.77;;;1.30;;
146;SDS011;45999;48.808;9.182;2023-04-03T12:49:54;3.70;;;1.40;;
146;SDS011;45999;48.808;9.182;2023-04-03T12:52:34;1.57;;;1.33;;
146;SDS011;45999;48.808;9.182;2023-04-03T12:55:14;2.37;;;1.50;;
146;SDS011;45999;48.808;9.182;2023-04-03T12:57:42;3.33;;;1.57;;
146;SDS011;45999;48.808;9.182;2023-04-03T13:00:21;2.20;;;1.40;;
146;SDS011;45999;48.808;9.182;2023-04-03T13:02:54;4.00;;;1.53;;
146;SDS011;45999;48.808;9.182;2023-04-03T13:05:21;3.30;;;1.50;;
146;SDS011;45999;48.808;9.182;2023-04-03T13:07:49;3.67;;;1.70;;
146;SDS011;45999;48.808;9.182;2023-04-03T13:10:21;2.80;;;1.63;;
146;SDS011;45999;48.808;9.182;2023-04-03T13:15:18;2.03;;;1.00;;
146;SDS011;45999;48.808;9.182;2023-04-03T13:17:49;2.00;;;1.20;;
146;SDS011;45999;48.808;9.182;2023-04-03T13:20:22;2.27;;;1.23;;
146;SDS011;45999;48.808;9.182;2023-04-03T13:22:52;3.20;;;1.50;;
146;SDS011;45999;48.808;9.182;2023-04-03T13:25:20;1.90;;;1.10;;
146;SDS011;45999;48.808;9.182;2023-04-03T13:27:49;2.30;;;1.50;;
146;SDS011;45999;48.808;9.182;2023-04-03T13:30:20;3.40;;;1.50;;
146;SDS011;45999;48.808;9.182;2023-04-03T13:32:50;3.17;;;1.50;;
146;SDS011;45999;48.808;9.182;2023-04-03T13:35:53;3.33;;;1.13;;
146;SDS011;45999;48.808;9.182;2023-04-03T13:40:56;2.60;;;1.40;;
146;SDS011;45999;48.808;9.182;2023-04-03T13:43:27;1.73;;;1.20;;
146;SDS011;45999;48.808;9.182;2023-04-03T13:48:46;11.67;;;1.87;;
146;SDS011;45999;48.808;9.182;2023-04-03T13:51:33;3.23;;;1.30;;
146;SDS011;45999;48.808;9.182;2023-04-03T13:54:15;1.80;;;1.40;;
146;SDS011;45999;48.808;9.182;2023-04-03T13:56:52;1.43;;;1.30;;
146;SDS011;45999;48.808;9.182;2023-04-03T13:59:23;2.90;;;1.50;;
146;SDS011;45999;48.808;9.182;2023-04-03T14:04:29;2.53;;;1.50;;
146;SDS011;45999;48.808;9.182;2023-04-03T14:06:57;2.50;;;1.63;;
146;SDS011;45999;48.808;9.182;2023-04-03T14:09:25;1.77;;;1.30;;
146;SDS011;45999;48.808;9.182;2023-04-03T14:11:57;2.20;;;1.80;;
146;SDS011;45999;48.808;9.182;2023-04-03T14:14:30;3.67;;;1.53;;
146;SDS011;45999;48.808;9.182;2023-04-03T14:17:00;2.10;;;1.73;;
146;SDS011;45999;48.808;9.182;2023-04-03T14:19:33;2.53;;;1.40;;
146;SDS011;45999;48.808;9.182;2023-04-03T14:22:00;2.23;;;1.70;;
146;SDS011;45999;48.808;9.182;2023-04-03T14:24:38;1.97;;;1.50;;
146;SDS011;45999;48.808;9.182;2023-04-03T14:27:08;4.07;;;1.60;;
146;SDS011;45999;48.808;9.182;2023-04-03T14:29:44;3.33;;;1.40;;
146;SDS011;45999;48.808;9.182;2023-04-03T14:32:12;2.23;;;1.53;;
146;SDS011;45999;48.808;9.182;2023-04-03T14:34:40;1.40;;;1.30;;
146;SDS011;45999;48.808;9.182;2023-04-03T14:37:12;1.93;;;1.57;;
146;SDS011;45999;48.808;9.182;2023-04-03T14:39:41;4.50;;;1.93;;
146;SDS011;45999;48.808;9.182;2023-04-03T14:42:15;2.70;;;1.60;;
146;SDS011;45999;48.808;9.182;2023-04-03T14:44:43;2.77;;;1.70;;
146;SDS011;45999;48.808;9.182;2023-04-03T14:47:14;2.10;;;1.60;;
146;SDS011;45999;48.808;9.182;2023-04-03T14:49:43;1.60;;;1.50;;
146;SDS011;45999;48.808;9.182;2023-04-03T14:52:16;2.57;;;1.40;;
146;SDS011;45999;48.808;9.182;2023-04-03T14:54:45;2.50;;;1.30;;
146;SDS011;45999;48.808;9.182;2023-04-03T14:57:13;3.20;;;1.30;;
146;SDS011;45999;48.808;9.182;2023-04-03T14:59:41;2.67;;;1.50;;
146;SDS011;45999;48.808;9.182;2023-04-03T15:02:22;3.37;;;1.30;;
146;SDS011;45999;48.808;9.182;2023-04-03T15:04:58;1.77;;;1.53;;
146;SDS011;45999;48.808;9.182;2023-04-03T15:07:28;2.90;;;1.40;;
146;SDS011;45999;48.808;9.182;2023-04-03T15:10:00;3.53;;;1.40;;
146;SDS011;45999;48.808;9.182;2023-04-03T15:12:29;2.10;;;1.40;;
146;SDS011;45999;48.808;9.182;2023-04-03T15:14:55;3.40;;;1.40;;
146;SDS011;45999;48.808;9.182;2023-04-03T15:17:22;3.43;;;1.50;;
146;SDS011;45999;48.808;9.182;2023-04-03T15:19:48;1.50;;;1.30;;
146;SDS011;45999;48.808;9.182;2023-04-03T15:22:16;1.47;;;1.37;;
146;SDS011;45999;48.808;9.182;2023-04-03T15:24:44;2.73;;;1.37;;
146;SDS011;45999;48.808;9.182;2023-04-03T15:27:11;1.50;;;1.40;;
146;SDS011;45999;48.808;9.182;2023-04-03T15:29:41;1.93;;;1.50;;
146;SDS011;45999;48.808;9.182;2023-04-03T15:32:08;5.37;;;1.90;;
146;SDS011;45999;48.808;9.182;2023-04-03T15:34:35;2.37;;;1.23;;
146;SDS011;45999;48.808;9.182;2023-04-03T15:37:02;2.43;;;1.40;;
146;SDS011;45999;48.808;9.182;2023-04-03T15:39:28;1.60;;;1.10;;
146;SDS011;45999;48.808;9.182;2023-04-03T15:41:55;4.37;;;1.70;;
146;SDS011;45999;48.808;9.182;2023-04-03T15:44:24;2.70;;;1.40;;
146;SDS011;45999;48.808;9.182;2023-04-03T15:46:51;2.20;;;1.40;;
146;SDS011;45999;48.808;9.182;2023-04-03T15:49:17;1.80;;;1.50;;
146;SDS011;45999;48.808;9.182;2023-04-03T15:51:45;3.13;;;1.40;;
146;SDS011;45999;48.808;9.182;2023-04-03T15:54:11;3.77;;;1.50;;
146;SDS011;45999;48.808;9.182;2023-04-03T15:56:38;2.33;;;1.30;;
146;SDS011;45999;48.808;9.182;2023-04-03T15:59:04;2.60;;;1.23;;
146;SDS011;45999;48.808;9.182;2023-04-03T16:01:31;2.83;;;1.30;;
146;SDS011;45999;48.808;9.182;2023-04-03T16:03:58;2.33;;;1.40;;
146;SDS011;45999;48.808;9.182;2023-04-03T16:06:24;2.03;;;1.40;;
146;SDS011;45999;48.808;9.182;2023-04-03T16:08:54;1.87;;;1.43;;
146;SDS011;45999;48.808;9.182;2023-04-03T16:11:22;3.37;;;1.67;;
146;SDS011;45999;48.808;9.182;2023-04-03T16:13:50;1.50;;;1.40;;
146;SDS011;45999;48.808;9.182;2023-04-03T16:16:16;2.50;;;1.67;;
146;SDS011;45999;48.808;9.182;2023-04-03T16:18:43;1.43;;;1.30;;
146;SDS011;45999;48.808;9.182;2023-04-03T16:21:09;2.20;;;1.50;;
146;SDS011;45999;48.808;9.182;2023-04-03T16:23:35;2.13;;;1.40;;
146;SDS011;45999;48.808;9.182;2023-04-03T16:26:02;1.43;;;1.23;;
146;SDS011;45999;48.808;9.182;2023-04-03T16:28:28;1.47;;;1.23;;
146;SDS011;45999;48.808;9.182;2023-04-03T16:30:55;3.10;;;1.40;;
146;SDS011;45999;48.808;9.182;2023-04-03T16:33:21;1.97;;;1.50;;
146;SDS011;45999;48.808;9.182;2023-04-03T16:35:48;2.57;;;1.30;;
146;SDS011;45999;48.808;9.182;2023-04-03T16:38:17;2.17;;;1.43;;
146;SDS011;45999;48.808;9.182;2023-04-03T16:40:43;4.03;;;1.30;;
146;SDS011;45999;48.808;9.182;2023-04-03T16:43:10;1.50;;;1.30;;
146;SDS011;45999;48.808;9.182;2023-04-03T16:45:37;2.50;;;1.10;;
146;SDS011;45999;48.808;9.182;2023-04-03T16:48:03;1.73;;;1.30;;
146;SDS011;45999;48.808;9.182;2023-04-03T16:50:30;3.57;;;1.80;;
146;SDS011;45999;48.808;9.182;2023-04-03T16:52:57;2.53;;;1.53;;
146;SDS011;45999;48.808;9.182;2023-04-03T16:55:23;2.10;;;1.70;;
146;SDS011;45999;48.808;9.182;2023-04-03T16:57:50;1.90;;;1.27;;
146;SDS011;45999;48.808;9.182;2023-04-03T17:00:16;1.67;;;1.40;;